Time;durP1;ratioP1;P1;durP2;ratioP2;P2;SDS_P1;SDS_P2;PMS_P1;PMS_P2;Temp;Humidity;BMP_temperature;BMP_pressure;BME280_temperature;BME280_humidity;BME280_pressure;Samples;Min_cycle;Max_cycle;Signal;HPM_P1;HPM_P2
2022/07/29 00:01:46;;;;;;;5.10;2.00;;;;;;;11.98;100.00;101125.72;7383438;19;20394;-61
2022/07/29 00:04:16;;;;;;;7.03;1.90;;;;;;;11.99;100.00;101122.31;7390558;19;20918;-55
2022/07/29 00:06:49;;;;;;;3.50;1.67;;;;;;;12.02;100.00;101111.19;7383655;19;20494;-55
2022/07/29 00:09:18;;;;;;;5.57;1.87;;;;;;;12.00;100.00;101105.09;7390693;19;20389;-58
2022/07/29 00:11:48;;;;;;;4.47;1.83;;;;;;;12.07;100.00;101098.50;7383387;19;20380;-58
2022/07/29 00:14:17;;;;;;;4.53;1.80;;;;;;;12.04;100.00;101096.66;7391508;19;20401;-56
2022/07/29 00:16:47;;;;;;;6.70;2.10;;;;;;;12.04;100.00;101094.06;7384765;19;20418;-57
2022/07/29 00:19:17;;;;;;;7.07;2.30;;;;;;;11.98;100.00;101098.97;7392065;19;20391;-55
2022/07/29 00:21:49;;;;;;;4.63;2.00;;;;;;;11.91;100.00;101095.25;7385316;19;20390;-56
2022/07/29 00:24:18;;;;;;;4.93;1.90;;;;;;;11.97;100.00;101090.34;7391316;19;20386;-55
2022/07/29 00:26:48;;;;;;;5.60;2.17;;;;;;;11.98;100.00;101089.50;7392640;19;20424;-55
2022/07/29 00:29:17;;;;;;;4.00;2.10;;;;;;;12.02;100.00;101095.69;7399068;19;20388;-59
2022/07/29 00:32:02;;;;;;;5.07;2.27;;;;;;;11.99;100.00;101096.44;7386039;19;20418;-57
2022/07/29 00:37:17;;;;;;;5.97;2.50;;;;;;;11.92;100.00;101094.44;7391547;19;20432;-60
2022/07/29 00:39:46;;;;;;;8.83;2.30;;;;;;;11.90;100.00;101103.84;7398598;19;20795;-58
2022/07/29 00:42:16;;;;;;;7.47;2.50;;;;;;;11.90;100.00;101093.50;7390967;19;20412;-53
2022/07/29 00:44:46;;;;;;;3.83;1.90;;;;;;;11.87;100.00;101096.81;7398247;19;20397;-56
2022/07/29 00:47:16;;;;;;;4.00;2.33;;;;;;;11.91;100.00;101095.25;7390406;19;20432;-59
2022/07/29 00:49:45;;;;;;;5.90;2.50;;;;;;;11.94;100.00;101099.66;7398365;19;20459;-58
2022/07/29 00:52:18;;;;;;;4.97;2.83;;;;;;;11.87;100.00;101102.00;7390893;19;20413;-54
2022/07/29 00:54:47;;;;;;;4.80;2.70;;;;;;;11.74;100.00;101098.00;7397861;19;20387;-59
2022/07/29 00:57:17;;;;;;;4.40;2.37;;;;;;;11.76;100.00;101098.06;7389380;19;20976;-59
2022/07/29 00:59:46;;;;;;;5.83;3.07;;;;;;;11.75;100.00;101092.00;7398340;19;20385;-54
2022/07/29 01:02:16;;;;;;;5.73;2.33;;;;;;;11.79;100.00;101086.97;7391446;19;20412;-58
2022/07/29 01:04:46;;;;;;;5.30;2.60;;;;;;;11.68;100.00;101086.50;7399595;19;20391;-58
2022/07/29 01:07:18;;;;;;;5.47;2.50;;;;;;;11.70;100.00;101078.00;7389443;19;20411;-55
2022/07/29 01:09:48;;;;;;;5.03;2.40;;;;;;;11.62;100.00;101074.22;7397638;19;20384;-59
2022/07/29 01:12:24;;;;;;;4.10;2.30;;;;;;;11.68;100.00;101077.06;7390023;19;20396;-58
2022/07/29 01:14:54;;;;;;;4.83;2.47;;;;;;;11.65;100.00;101079.53;7393758;19;20494;-59
2022/07/29 01:17:28;;;;;;;9.67;2.57;;;;;;;11.65;100.00;101069.19;7389712;19;20498;-55
2022/07/29 01:20:02;;;;;;;7.63;2.50;;;;;;;11.60;100.00;101065.53;7397788;19;20388;-58
2022/07/29 01:22:44;;;;;;;5.73;2.30;;;;;;;11.65;100.00;101066.59;7390847;19;20422;-56
2022/07/29 01:25:35;;;;;;;10.20;2.60;;;;;;;11.70;100.00;101069.38;7396487;19;20383;-53
2022/07/29 01:28:24;;;;;;;4.20;2.40;;;;;;;11.59;100.00;101074.97;7391204;19;20426;-58
2022/07/29 01:30:58;;;;;;;5.97;2.27;;;;;;;11.59;100.00;101076.69;7397304;19;20383;-58
2022/07/29 01:36:14;;;;;;;4.43;2.20;;;;;;;11.63;100.00;101069.94;7394120;19;20770;-61
2022/07/29 01:38:45;;;;;;;7.00;2.47;;;;;;;11.60;100.00;101074.13;7389375;19;20408;-57
2022/07/29 01:41:17;;;;;;;6.80;2.27;;;;;;;11.55;100.00;101077.34;7397424;19;20462;-59
2022/07/29 01:43:52;;;;;;;8.10;3.00;;;;;;;11.54;100.00;101073.00;7388746;19;20418;-58
2022/07/29 01:46:30;;;;;;;6.53;2.20;;;;;;;11.53;100.00;101073.84;7395639;19;20418;-58
2022/07/29 01:49:03;;;;;;;7.80;2.80;;;;;;;11.44;100.00;101070.00;7396231;19;20953;-50
2022/07/29 01:51:35;;;;;;;4.23;2.30;;;;;;;11.45;100.00;101076.94;7389778;19;20395;-57
2022/07/29 01:54:11;;;;;;;7.13;2.30;;;;;;;11.46;100.00;101063.25;7395012;19;20384;-53
2022/07/29 01:56:41;;;;;;;5.00;2.60;;;;;;;11.40;100.00;101070.72;7389257;19;20430;-58
2022/07/29 01:59:12;;;;;;;6.20;2.30;;;;;;;11.37;100.00;101067.13;7396362;19;20388;-57
2022/07/29 02:01:45;;;;;;;6.40;2.40;;;;;;;11.37;100.00;101068.00;7390619;19;20378;-54
2022/07/29 02:04:15;;;;;;;9.63;3.27;;;;;;;11.37;100.00;101052.50;7395605;19;20454;-52
2022/07/29 02:07:01;;;;;;;5.13;2.00;;;;;;;11.37;100.00;101056.78;7388604;19;20445;-60
2022/07/29 02:09:32;;;;;;;5.40;2.20;;;;;;;11.35;100.00;101054.13;7396836;19;20779;-56
2022/07/29 02:12:03;;;;;;;6.77;2.30;;;;;;;11.35;100.00;101049.84;7388929;19;20962;-54
2022/07/29 02:14:36;;;;;;;5.20;2.30;;;;;;;11.36;100.00;101045.56;7395413;19;20387;-55
2022/07/29 02:17:08;;;;;;;6.17;2.57;;;;;;;11.39;100.00;101043.09;7389282;19;20869;-49
2022/07/29 02:19:40;;;;;;;5.73;3.00;;;;;;;11.38;100.00;101043.91;7395448;19;20729;-59
2022/07/29 02:22:09;;;;;;;4.93;2.60;;;;;;;11.35;100.00;101049.84;7388195;19;20438;-52
2022/07/29 02:24:40;;;;;;;6.13;2.33;;;;;;;11.35;100.00;101046.38;7394895;19;20487;-58
2022/07/29 02:27:10;;;;;;;6.27;2.70;;;;;;;11.37;100.00;101042.16;7387530;19;20765;-53
2022/07/29 02:29:40;;;;;;;7.67;2.70;;;;;;;11.32;100.00;101033.31;7395198;19;20389;-59
2022/07/29 02:32:13;;;;;;;7.13;2.47;;;;;;;11.33;100.00;101029.91;7389346;19;20413;-57
2022/07/29 02:34:42;;;;;;;5.40;2.47;;;;;;;11.39;100.00;101035.34;7394698;19;20394;-50
2022/07/29 02:37:12;;;;;;;7.60;2.50;;;;;;;11.43;100.00;101032.09;7387016;19;20426;-57
2022/07/29 02:39:44;;;;;;;6.53;2.73;;;;;;;11.44;100.00;101033.84;7397921;19;20400;-57
2022/07/29 02:42:17;;;;;;;5.90;3.00;;;;;;;11.50;100.00;101030.66;7388600;19;20719;-57
2022/07/29 02:44:47;;;;;;;7.43;3.20;;;;;;;11.52;100.00;101018.69;7394417;19;20413;-60
2022/07/29 02:47:21;;;;;;;9.87;3.03;;;;;;;11.55;100.00;101030.84;7386801;19;20418;-57
2022/07/29 02:49:56;;;;;;;7.77;2.53;;;;;;;11.56;100.00;101032.59;7394155;19;20394;-55
2022/07/29 02:52:29;;;;;;;5.37;3.33;;;;;;;11.55;100.00;101028.25;7386377;19;20429;-57
2022/07/29 02:55:01;;;;;;;8.70;3.63;;;;;;;11.52;100.00;101035.88;7393809;19;20383;-57
2022/07/29 02:57:35;;;;;;;5.27;2.73;;;;;;;11.51;100.00;101024.66;7388548;19;20446;-56
2022/07/29 03:00:24;;;;;;;6.20;2.97;;;;;;;11.60;100.00;101022.47;7394229;19;20469;-54
2022/07/29 03:02:58;;;;;;;8.07;3.87;;;;;;;11.57;100.00;101021.44;7387919;19;20501;-55
2022/07/29 03:05:28;;;;;;;6.37;3.00;;;;;;;11.60;100.00;101024.19;7393485;19;20481;-56
2022/07/29 03:08:03;;;;;;;8.90;3.30;;;;;;;11.52;100.00;101022.94;7386775;19;20423;-55
2022/07/29 03:10:33;;;;;;;12.10;3.27;;;;;;;11.55;100.00;101025.69;7394195;19;20994;-60
2022/07/29 03:13:04;;;;;;;5.70;3.37;;;;;;;11.62;100.00;101017.34;7385714;19;20433;-58
2022/07/29 03:15:33;;;;;;;14.17;4.67;;;;;;;11.59;100.00;101012.94;7392529;19;20397;-56
2022/07/29 03:18:06;;;;;;;7.50;3.07;;;;;;;11.55;100.00;101016.25;7386812;19;20966;-56
2022/07/29 03:20:36;;;;;;;7.00;2.70;;;;;;;11.59;100.00;101019.84;7394066;19;20384;-51
2022/07/29 03:23:05;;;;;;;7.90;3.43;;;;;;;11.59;100.00;101017.25;7387290;19;20419;-59
2022/07/29 03:25:35;;;;;;;8.03;3.50;;;;;;;11.58;100.00;101016.34;7392707;19;20738;-57
2022/07/29 03:28:05;;;;;;;7.00;3.33;;;;;;;11.57;100.00;101013.69;7386704;19;20406;-59
2022/07/29 03:30:34;;;;;;;44.13;24.10;;;;;;;11.71;100.00;101012.59;7393429;19;20466;-57
2022/07/29 03:33:09;;;;;;;52.77;27.30;;;;;;;11.78;100.00;101010.25;7385878;19;20435;-58
2022/07/29 03:35:42;;;;;;;39.53;18.37;;;;;;;11.84;100.00;101013.97;7391912;19;20426;-58
2022/07/29 03:38:11;;;;;;;23.70;13.33;;;;;;;11.86;100.00;101009.72;7387462;19;20428;-54
2022/07/29 03:40:43;;;;;;;26.70;14.23;;;;;;;11.89;100.00;101006.38;7393097;19;20914;-60
2022/07/29 03:43:13;;;;;;;36.20;15.00;;;;;;;11.85;100.00;101014.84;7386395;19;20429;-52
2022/07/29 03:45:45;;;;;;;15.30;7.53;;;;;;;11.90;100.00;101013.34;7391707;19;20419;-57
2022/07/29 03:48:20;;;;;;;22.17;10.00;;;;;;;11.89;100.00;101022.78;7386793;19;20425;-54
2022/07/29 03:50:50;;;;;;;20.90;11.07;;;;;;;11.83;100.00;101016.47;7392887;19;20477;-57
2022/07/29 03:53:20;;;;;;;8.73;4.43;;;;;;;11.79;100.00;101019.78;7384504;19;20435;-58
2022/07/29 03:55:53;;;;;;;11.33;6.30;;;;;;;11.80;100.00;101021.53;7391190;19;20419;-58
2022/07/29 03:58:23;;;;;;;9.77;5.17;;;;;;;11.79;100.00;101022.34;7385420;19;20422;-52
2022/07/29 04:00:53;;;;;;;7.80;4.30;;;;;;;11.73;100.00;101020.38;7396069;19;20384;-58
2022/07/29 04:03:25;;;;;;;8.90;3.53;;;;;;;11.78;100.00;101018.88;7392946;19;20768;-55
2022/07/29 04:06:03;;;;;;;8.13;3.17;;;;;;;11.85;100.00;101022.59;7398275;19;20415;-57
2022/07/29 04:08:32;;;;;;;5.90;3.00;;;;;;;11.88;100.00;101020.13;7396195;19;20812;-48
2022/07/29 04:11:02;;;;;;;7.73;3.33;;;;;;;11.88;100.00;101023.59;7399955;19;20386;-55
2022/07/29 04:13:31;;;;;;;6.50;3.30;;;;;;;11.83;100.00;101024.22;7391383;19;20464;-56
2022/07/29 04:16:01;;;;;;;18.53;5.40;;;;;;;11.78;100.00;101028.34;7397638;19;20426;-58
2022/07/29 04:18:33;;;;;;;5.90;3.50;;;;;;;11.77;100.00;101027.44;7392899;19;20408;-53
2022/07/29 04:21:03;;;;;;;11.00;3.40;;;;;;;11.89;100.00;101022.78;7399643;19;20396;-56
2022/07/29 04:23:34;;;;;;;10.50;2.93;;;;;;;12.07;100.00;101023.50;7392909;19;20412;-56
2022/07/29 04:26:17;;;;;;;7.20;3.90;;;;;;;12.21;100.00;101030.09;7399237;19;20936;-58
2022/07/29 04:28:47;;;;;;;16.73;6.90;;;;;;;12.43;100.00;101036.97;7391967;19;20483;-51
2022/07/29 04:31:16;;;;;;;14.07;8.20;;;;;;;12.48;100.00;101044.94;7399287;19;20385;-55
2022/07/29 04:33:56;;;;;;;21.97;12.80;;;;;;;12.66;100.00;101052.50;7390599;19;20431;-57
2022/07/29 04:36:25;;;;;;;25.67;13.03;;;;;;;12.78;100.00;101059.84;7397372;19;20842;-59
2022/07/29 04:38:58;;;;;;;11.00;6.87;;;;;;;12.71;100.00;101070.81;7396844;19;20410;-56
2022/07/29 04:41:27;;;;;;;21.43;10.60;;;;;;;13.03;100.00;101081.47;7398928;19;20389;-59
2022/07/29 04:44:04;;;;;;;13.63;4.67;;;;;;;12.88;100.00;101087.00;7398421;19;20459;-54
2022/07/29 04:46:35;;;;;;;10.43;5.70;;;;;;;12.75;100.00;101092.50;7391121;19;20410;-58
2022/07/29 04:49:08;;;;;;;8.87;4.20;;;;;;;12.73;100.00;101097.66;7398074;19;20394;-60
2022/07/29 04:51:37;;;;;;;7.97;3.43;;;;;;;12.54;100.00;101099.53;7392421;19;20380;-55
2022/07/29 04:54:07;;;;;;;6.90;2.93;;;;;;;12.32;100.00;101094.31;7395529;19;20385;-58
2022/07/29 04:56:37;;;;;;;7.13;3.43;;;;;;;12.40;100.00;101093.81;7391003;19;20959;-57
2022/07/29 04:59:06;;;;;;;7.37;3.63;;;;;;;12.52;100.00;101084.75;7397535;19;20383;-58
2022/07/29 05:01:36;;;;;;;7.07;3.53;;;;;;;12.41;100.00;101086.94;7394253;19;20397;-60
2022/07/29 05:04:08;;;;;;;6.50;3.27;;;;;;;12.38;100.00;101085.09;7397038;19;20382;-60
2022/07/29 05:06:38;;;;;;;9.87;3.70;;;;;;;12.38;100.00;101087.69;7391130;19;20420;-57
2022/07/29 05:09:07;;;;;;;7.67;3.40;;;;;;;12.34;100.00;101087.47;7397657;19;20766;-58
2022/07/29 05:11:37;;;;;;;5.10;2.90;;;;;;;12.42;100.00;101066.28;7390746;19;20396;-53
2022/07/29 05:14:06;;;;;;;9.43;3.03;;;;;;;12.49;100.00;101072.56;7395125;19;20396;-59
2022/07/29 05:16:36;;;;;;;11.40;3.20;;;;;;;12.42;100.00;101073.16;7389948;19;20417;-55
2022/07/29 05:19:08;;;;;;;6.60;4.00;;;;;;;12.54;100.00;101070.16;7397092;19;20389;-56
2022/07/29 05:21:42;;;;;;;8.53;3.20;;;;;;;12.68;100.00;101078.47;7391215;19;20393;-55
2022/07/29 05:24:12;;;;;;;5.83;3.07;;;;;;;12.86;100.00;101087.75;7396470;19;20731;-61
2022/07/29 05:26:44;;;;;;;10.10;3.47;;;;;;;12.74;100.00;101095.94;7390572;19;20420;-58
2022/07/29 05:29:13;;;;;;;8.83;3.73;;;;;;;12.68;100.00;101094.00;7397321;19;20710;-55
2022/07/29 05:32:03;;;;;;;8.60;3.10;;;;;;;12.57;100.00;101091.00;7390670;19;20409;-55
2022/07/29 05:34:35;;;;;;;7.80;4.33;;;;;;;12.59;100.00;101093.63;7395185;19;20402;-60
2022/07/29 05:37:18;;;;;;;6.73;3.03;;;;;;;12.70;100.00;101082.00;7389110;19;20408;-54
2022/07/29 05:39:47;;;;;;;8.33;3.00;;;;;;;13.02;100.00;101084.91;7396690;19;20460;-54
2022/07/29 05:42:26;;;;;;;18.17;9.30;;;;;;;13.03;100.00;101096.16;7390717;19;20414;-56
2022/07/29 05:44:55;;;;;;;16.23;8.20;;;;;;;12.88;100.00;101101.63;7396359;19;20950;-55
2022/07/29 05:47:25;;;;;;;26.53;14.30;;;;;;;12.97;100.00;101091.59;7388697;19;20755;-56
2022/07/29 05:49:58;;;;;;;11.63;6.10;;;;;;;12.90;100.00;101094.81;7396402;19;20395;-56
2022/07/29 05:52:27;;;;;;;25.37;14.93;;;;;;;13.02;100.00;101092.66;7390512;19;20427;-54
2022/07/29 05:54:57;;;;;;;17.33;9.00;;;;;;;13.14;100.00;101094.84;7394117;19;20388;-56
2022/07/29 05:57:26;;;;;;;22.00;13.50;;;;;;;13.57;100.00;101110.19;7388984;19;20408;-53
2022/07/29 05:59:56;;;;;;;16.73;9.07;;;;;;;13.59;100.00;101124.97;7395636;19;20391;-57
2022/07/29 06:02:25;;;;;;;17.53;7.30;;;;;;;13.98;100.00;101128.00;7388930;19;20800;-57
2022/07/29 06:04:58;;;;;;;10.97;4.20;;;;;;;13.98;100.00;101139.25;7394774;19;20380;-56
2022/07/29 06:07:28;;;;;;;12.13;4.97;;;;;;;13.98;100.00;101149.63;7388488;19;20450;-52
2022/07/29 06:09:57;;;;;;;8.37;3.87;;;;;;;13.88;100.00;101150.16;7395477;19;20395;-55
2022/07/29 06:12:27;;;;;;;11.93;5.73;;;;;;;14.39;100.00;101156.13;7389991;19;20441;-56
2022/07/29 06:14:56;;;;;;;9.20;4.00;;;;;;;14.23;100.00;101139.19;7393738;19;20384;-55
2022/07/29 06:17:26;;;;;;;7.27;3.40;;;;;;;14.10;100.00;101149.16;7388048;19;20412;-54
2022/07/29 06:19:58;;;;;;;5.23;2.67;;;;;;;13.97;100.00;101142.69;7395314;19;20385;-59
2022/07/29 06:22:28;;;;;;;5.00;3.30;;;;;;;14.13;100.00;101133.72;7387473;19;20938;-55
2022/07/29 06:24:58;;;;;;;8.50;4.10;;;;;;;14.39;100.00;101130.19;7394681;19;20748;-55
2022/07/29 06:27:27;;;;;;;8.70;4.10;;;;;;;14.44;100.00;101145.09;7386437;19;20483;-60
2022/07/29 06:29:57;;;;;;;46.20;27.27;;;;;;;14.59;100.00;101154.19;7393054;19;20920;-57
2022/07/29 06:32:26;;;;;;;72.13;46.50;;;;;;;14.72;100.00;101152.88;7388415;19;20414;-56
2022/07/29 06:34:58;;;;;;;37.43;24.20;;;;;;;14.90;100.00;101149.97;7393077;19;20546;-57
2022/07/29 06:37:48;;;;;;;26.80;16.40;;;;;;;14.82;100.00;101151.47;7384800;19;20451;-56
2022/07/29 06:43:04;;;;;;;29.63;18.37;;;;;;;14.94;100.00;101150.94;7391232;19;20457;-52
2022/07/29 06:45:38;;;;;;;24.23;14.90;;;;;;;15.14;100.00;101161.94;7393759;19;20402;-60
2022/07/29 06:48:08;;;;;;;12.47;5.50;;;;;;;15.24;100.00;101163.97;7388646;19;20955;-58
2022/07/29 06:50:40;;;;;;;8.07;3.50;;;;;;;15.23;100.00;101164.78;7394780;19;20395;-55
2022/07/29 06:53:09;;;;;;;6.60;2.47;;;;;;;15.19;100.00;101162.06;7387399;19;20481;-60
2022/07/29 06:55:39;;;;;;;12.17;4.27;;;;;;;15.04;100.00;101171.19;7394431;19;20438;-55
2022/07/29 06:58:10;;;;;;;5.50;2.70;;;;;;;15.09;100.00;101153.13;7387149;19;20484;-59
2022/07/29 07:00:40;;;;;;;8.30;2.73;;;;;;;15.09;100.00;101145.34;7394272;19;20403;-59
2022/07/29 07:03:10;;;;;;;10.47;4.00;;;;;;;15.12;100.00;101141.09;7387651;19;20429;-55
2022/07/29 07:05:42;;;;;;;6.90;2.50;;;;;;;15.11;100.00;101152.34;7393002;19;20940;-57
2022/07/29 07:08:12;;;;;;;10.57;5.03;;;;;;;15.15;100.00;101142.91;7389361;19;20460;-57
2022/07/29 07:10:41;;;;;;;8.37;2.90;;;;;;;15.25;100.00;101136.25;7393922;19;20385;-56
2022/07/29 07:13:11;;;;;;;9.97;2.87;;;;;;;15.35;100.00;101142.59;7389161;19;20450;-56
2022/07/29 07:15:41;;;;;;;6.63;2.97;;;;;;;15.52;100.00;101137.84;7391449;19;20942;-58
2022/07/29 07:18:10;;;;;;;12.43;3.07;;;;;;;15.61;100.00;101145.94;7386970;19;20414;-54
2022/07/29 07:20:42;;;;;;;8.50;2.90;;;;;;;15.80;100.00;101157.69;7393525;19;20732;-59
2022/07/29 07:23:13;;;;;;;8.50;3.37;;;;;;;15.98;100.00;101158.16;7386818;19;20416;-55
2022/07/29 07:25:42;;;;;;;7.10;2.23;;;;;;;16.09;100.00;101163.66;7392544;19;20939;-57
2022/07/29 07:28:12;;;;;;;8.37;2.67;;;;;;;16.15;100.00;101166.41;7386840;19;20422;-56
2022/07/29 07:30:42;;;;;;;10.37;2.97;;;;;;;16.26;100.00;101164.94;7392172;19;20454;-55
2022/07/29 07:33:11;;;;;;;8.83;3.13;;;;;;;16.41;100.00;101177.47;7386586;19;20420;-53
2022/07/29 07:35:44;;;;;;;8.67;2.90;;;;;;;16.46;100.00;101185.41;7391022;19;20435;-58
2022/07/29 07:38:13;;;;;;;5.80;2.87;;;;;;;16.48;100.00;101191.53;7386337;19;20412;-57
2022/07/29 07:40:46;;;;;;;7.80;2.73;;;;;;;16.60;100.00;101189.22;7392866;19;20385;-56
2022/07/29 07:43:15;;;;;;;9.07;3.00;;;;;;;16.68;100.00;101192.00;7385538;19;20423;-59
2022/07/29 07:45:45;;;;;;;9.47;2.70;;;;;;;16.77;100.00;101195.66;7393314;19;20453;-58
2022/07/29 07:48:14;;;;;;;8.60;2.77;;;;;;;16.90;100.00;101184.66;7388553;19;20430;-58
2022/07/29 07:50:49;;;;;;;8.03;3.00;;;;;;;17.04;100.00;101192.84;7392424;19;20771;-58
2022/07/29 07:53:19;;;;;;;8.60;3.20;;;;;;;17.14;100.00;101196.53;7384878;19;20432;-57
2022/07/29 07:55:48;;;;;;;6.03;2.53;;;;;;;17.14;100.00;101207.81;7390429;19;20945;-61
2022/07/29 07:58:38;;;;;;;6.83;3.50;;;;;;;17.23;100.00;101204.53;7385867;19;20417;-60
2022/07/29 08:01:07;;;;;;;20.00;7.50;;;;;;;17.26;100.00;101207.22;7392379;19;20391;-61
2022/07/29 08:03:37;;;;;;;4.30;2.60;;;;;;;17.29;100.00;101201.19;7385521;19;20410;-58
2022/07/29 08:06:10;;;;;;;7.47;3.07;;;;;;;17.33;100.00;101203.00;7395026;19;20520;-62
2022/07/29 08:08:39;;;;;;;10.53;5.10;;;;;;;17.39;100.00;101203.13;7385838;19;20407;-57
2022/07/29 08:11:09;;;;;;;7.20;2.67;;;;;;;17.49;100.00;101204.19;7392199;19;20391;-60
2022/07/29 08:13:39;;;;;;;6.43;3.07;;;;;;;17.50;100.00;101205.06;7385825;19;20415;-59
2022/07/29 08:16:15;;;;;;;7.30;2.97;;;;;;;17.51;100.00;101222.47;7389494;19;20437;-58
2022/07/29 08:18:46;;;;;;;8.27;3.97;;;;;;;17.60;100.00;101222.69;7383334;19;20955;-60
2022/07/29 08:21:18;;;;;;;15.77;5.00;;;;;;;17.64;100.00;101227.09;7392024;19;20392;-57
2022/07/29 08:23:50;;;;;;;7.10;2.30;;;;;;;17.75;100.00;101231.66;7384692;19;20950;-59
2022/07/29 08:26:27;;;;;;;6.93;2.80;;;;;;;17.84;100.00;101230.97;7390083;19;20407;-61
2022/07/29 08:28:56;;;;;;;8.40;3.63;;;;;;;17.82;100.00;101238.75;7393019;19;20446;-61
2022/07/29 08:31:26;;;;;;;17.77;9.33;;;;;;;17.95;100.00;101240.75;7391858;19;20746;-60
2022/07/29 08:33:56;;;;;;;6.17;2.90;;;;;;;18.03;100.00;101247.84;7390387;19;20415;-51
2022/07/29 08:36:29;;;;;;;15.43;6.60;;;;;;;18.15;100.00;101253.31;7389396;19;20436;-59
2022/07/29 08:38:59;;;;;;;11.27;4.67;;;;;;;18.34;100.00;101253.66;7390000;19;20407;-55
2022/07/29 08:41:29;;;;;;;7.53;3.07;;;;;;;18.57;100.00;101266.22;7390762;19;20388;-60
2022/07/29 08:43:58;;;;;;;13.97;5.93;;;;;;;18.68;100.00;101262.06;7389993;19;20429;-54
2022/07/29 08:46:28;;;;;;;6.30;2.80;;;;;;;18.70;100.00;101262.06;7392897;19;20950;-53
2022/07/29 08:48:58;;;;;;;4.87;2.50;;;;;;;18.77;100.00;101263.94;7397727;19;20761;-56
2022/07/29 08:51:30;;;;;;;10.23;4.17;;;;;;;18.95;100.00;101260.72;7398634;19;20394;-55
2022/07/29 08:54:00;;;;;;;10.73;2.73;;;;;;;19.07;100.00;101275.75;7396144;19;20924;-55
2022/07/29 08:56:29;;;;;;;16.07;2.60;;;;;;;19.05;100.00;101293.16;7390458;19;20450;-60
2022/07/29 08:59:00;;;;;;;6.63;2.33;;;;;;;19.14;100.00;101295.03;7397745;19;20387;-54
2022/07/29 09:01:36;;;;;;;9.30;3.50;;;;;;;19.34;100.00;101287.47;7391643;19;20386;-58
2022/07/29 09:04:14;;;;;;;5.63;2.93;;;;;;;19.41;100.00;101289.31;7396707;19;20463;-55
2022/07/29 09:06:52;;;;;;;5.83;2.87;;;;;;;19.51;100.00;101286.81;7390260;19;20411;-54
2022/07/29 09:09:21;;;;;;;7.50;2.70;;;;;;;19.73;100.00;101303.66;7397786;19;20391;-56
2022/07/29 09:11:52;;;;;;;7.93;2.73;;;;;;;19.79;100.00;101306.34;7391241;19;20762;-60
2022/07/29 09:14:23;;;;;;;16.67;7.07;;;;;;;19.95;100.00;101311.78;7396818;19;20407;-51
2022/07/29 09:16:54;;;;;;;5.23;2.70;;;;;;;20.16;100.00;101307.69;7388908;19;20407;-58
2022/07/29 09:19:26;;;;;;;9.80;2.20;;;;;;;20.24;100.00;101319.09;7401828;19;20395;-56
2022/07/29 09:21:57;;;;;;;16.23;6.10;;;;;;;20.25;100.00;101320.84;7390157;19;20418;-55
2022/07/29 09:24:28;;;;;;;16.70;9.77;;;;;;;20.31;100.00;101331.41;7396609;19;20407;-57
2022/07/29 09:26:58;;;;;;;9.37;3.90;;;;;;;20.43;100.00;101335.00;7389821;19;20410;-60
2022/07/29 09:29:27;;;;;;;9.50;3.60;;;;;;;20.47;100.00;101331.56;7397245;19;20394;-54
2022/07/29 09:32:09;;;;;;;7.73;3.50;;;;;;;20.63;100.00;101336.06;7390407;19;20415;-58
2022/07/29 09:34:39;;;;;;;10.93;5.23;;;;;;;20.71;100.00;101328.28;7396339;19;20383;-56
2022/07/29 09:37:11;;;;;;;7.97;4.00;;;;;;;20.87;100.00;101325.84;7388878;19;20425;-57
2022/07/29 09:39:45;;;;;;;7.70;3.63;;;;;;;20.88;100.00;101338.94;7396817;19;20387;-55
2022/07/29 09:42:16;;;;;;;8.47;2.50;;;;;;;20.91;100.00;101349.47;7390879;19;20744;-57
2022/07/29 09:44:48;;;;;;;6.70;1.97;;;;;;;20.80;100.00;101353.72;7396046;19;20391;-57
2022/07/29 09:47:18;;;;;;;8.67;2.80;;;;;;;20.85;100.00;101349.41;7390542;19;20415;-58
2022/07/29 09:49:57;;;;;;;6.87;2.40;;;;;;;20.89;100.00;101345.97;7396789;19;20394;-54
2022/07/29 09:52:30;;;;;;;7.67;2.80;;;;;;;20.98;100.00;101360.00;7388973;19;20965;-58
2022/07/29 09:55:07;;;;;;;7.20;2.93;;;;;;;20.87;100.00;101375.66;7395649;19;20424;-52
2022/07/29 09:57:37;;;;;;;10.07;2.93;;;;;;;20.86;100.00;101377.38;7386718;19;20845;-61
2022/07/29 10:00:10;;;;;;;4.70;2.20;;;;;;;20.93;100.00;101373.09;7397465;19;20388;-54
2022/07/29 10:02:42;;;;;;;7.47;2.40;;;;;;;20.93;100.00;101365.22;7387516;19;20418;-57
2022/07/29 10:05:20;;;;;;;8.43;2.97;;;;;;;20.92;100.00;101376.59;7395314;19;20391;-58
2022/07/29 10:07:53;;;;;;;10.80;3.07;;;;;;;21.04;100.00;101362.69;7389241;19;20414;-55
2022/07/29 10:10:27;;;;;;;5.03;1.93;;;;;;;21.30;100.00;101365.50;7395791;19;20447;-57
2022/07/29 10:12:58;;;;;;;6.30;2.20;;;;;;;21.52;100.00;101367.34;7389239;19;20415;-59
2022/07/29 10:15:37;;;;;;;6.80;2.80;;;;;;;21.60;100.00;101381.44;7394642;19;20404;-57
2022/07/29 10:18:06;;;;;;;14.53;5.60;;;;;;;21.62;100.00;101369.19;7388347;19;20411;-55
2022/07/29 10:20:37;;;;;;;8.17;4.10;;;;;;;21.61;100.00;101369.16;7395002;19;20390;-56
2022/07/29 10:23:09;;;;;;;12.23;6.30;;;;;;;21.49;100.00;101351.59;7389040;19;20442;-55
2022/07/29 10:25:38;;;;;;;6.90;2.30;;;;;;;21.47;100.00;101369.97;7394130;19;20399;-51
2022/07/29 10:28:14;;;;;;;4.60;2.00;;;;;;;21.57;100.00;101371.78;7387875;19;20446;-56
2022/07/29 10:30:46;;;;;;;7.30;2.13;;;;;;;21.58;100.00;101383.16;7395055;19;20810;-60
2022/07/29 10:33:34;;;;;;;9.80;3.13;;;;;;;21.74;100.00;101383.28;7387281;19;20403;-58
2022/07/29 10:36:23;;;;;;;8.43;2.90;;;;;;;21.88;100.00;101381.59;7394339;19;20443;-57
2022/07/29 10:38:59;;;;;;;5.20;1.73;;;;;;;21.83;100.00;101393.81;7388127;19;20415;-55
2022/07/29 10:41:42;;;;;;;7.87;2.10;;;;;;;21.86;100.00;101383.34;7388353;19;20407;-52
2022/07/29 10:44:17;;;;;;;5.60;2.30;;;;;;;21.79;100.00;101382.41;7393861;19;20396;-56
2022/07/29 10:46:51;;;;;;;7.00;2.13;;;;;;;21.70;100.00;101378.00;7388095;19;20451;-58
2022/07/29 10:49:24;;;;;;;8.20;2.70;;;;;;;21.65;100.00;101390.22;7394536;19;20394;-58
2022/07/29 10:51:56;;;;;;;8.70;2.30;;;;;;;21.70;100.00;101383.25;7387824;19;20954;-56
2022/07/29 10:54:44;;;;;;;9.70;4.90;;;;;;;21.68;100.00;101384.97;7393517;19;20391;-55
2022/07/29 10:57:25;;;;;;;8.10;2.30;;;;;;;21.72;100.00;101383.25;7386583;19;20418;-55
2022/07/29 11:00:30;;;;;;;7.43;2.43;;;;;;;21.71;100.00;101374.53;7394544;19;20392;-52
2022/07/29 11:03:00;;;;;;;8.27;3.60;;;;;;;21.75;100.00;101379.78;7388031;19;20415;-58
2022/07/29 11:05:55;;;;;;;11.43;2.50;;;;;;;21.73;100.00;101371.88;7393020;19;20830;-57
2022/07/29 11:08:30;;;;;;;10.97;4.37;;;;;;;21.70;100.00;101378.00;7387202;19;20499;-58
2022/07/29 11:11:40;;;;;;;5.17;2.40;;;;;;;21.68;100.00;101379.72;7393324;19;20391;-57
2022/07/29 11:14:58;;;;;;;7.87;2.60;;;;;;;21.80;100.00;101375.44;7392816;19;20423;-56
2022/07/29 11:17:28;;;;;;;9.73;3.60;;;;;;;21.80;100.00;101360.53;7386122;19;20399;-56
2022/07/29 11:20:33;;;;;;;7.23;2.30;;;;;;;21.84;100.00;101371.97;7394056;19;20384;-59
2022/07/29 11:23:23;;;;;;;7.47;2.23;;;;;;;21.86;100.00;101367.59;7386718;19;20792;-58
2022/07/29 11:26:19;;;;;;;6.90;2.50;;;;;;;21.92;100.00;101377.22;7394634;19;20419;-57
2022/07/29 11:28:54;;;;;;;7.07;2.90;;;;;;;21.92;100.00;101380.75;7387079;19;20417;-55
2022/07/29 11:31:38;;;;;;;9.00;3.40;;;;;;;21.98;100.00;101370.25;7393281;19;20379;-57
2022/07/29 11:34:22;;;;;;;5.17;2.53;;;;;;;22.04;100.00;101381.66;7390927;19;20411;-53
2022/07/29 11:37:32;;;;;;;7.07;2.43;;;;;;;22.20;100.00;101367.69;7384323;19;20424;-57
2022/07/29 11:40:19;;;;;;;9.10;3.00;;;;;;;22.42;100.00;101364.25;7393108;19;20807;-56
2022/07/29 11:42:51;;;;;;;5.30;2.30;;;;;;;22.61;100.00;101367.81;7386503;19;20422;-57
2022/07/29 11:45:28;;;;;;;6.70;2.93;;;;;;;22.72;100.00;101360.81;7392007;19;20384;-59
2022/07/29 11:48:20;;;;;;;7.20;3.33;;;;;;;22.83;100.00;101362.56;7383350;19;20407;-55
2022/07/29 11:51:01;;;;;;;8.60;4.30;;;;;;;23.05;100.00;101369.59;7388502;19;20383;-55